Time;durP1;ratioP1;P1;durP2;ratioP2;P2;SDS_P1;SDS_P2;PMS_P1;PMS_P2;Temp;Humidity;BMP_temperature;BMP_pressure;BME280_temperature;BME280_humidity;BME280_pressure;Samples;Min_cycle;Max_cycle;Signal;HPM_P1;HPM_P2
2021/10/20 00:02:20;;;;;;;6.82;3.88;;;10.60;99.90;;;;;;5055172;28;20132;-80
2021/10/20 00:04:47;;;;;;;7.43;3.90;;;10.60;99.90;;;;;;5055308;28;20146;-78
2021/10/20 00:07:15;;;;;;;8.15;4.07;;;10.60;99.90;;;;;;5054520;28;20059;-78
2021/10/20 00:09:43;;;;;;;6.18;3.83;;;10.50;99.90;;;;;;5037668;28;20081;-77
2021/10/20 00:12:10;;;;;;;5.72;3.35;;;10.50;99.90;;;;;;5035142;28;20594;-79
2021/10/20 00:14:37;;;;;;;5.63;3.05;;;10.50;99.90;;;;;;5035390;28;20128;-79
2021/10/20 00:17:05;;;;;;;5.70;3.30;;;10.50;99.90;;;;;;5035257;28;20049;-79
2021/10/20 00:19:32;;;;;;;5.47;3.30;;;10.40;99.90;;;;;;5035126;28;20129;-78
2021/10/20 00:21:59;;;;;;;6.10;3.70;;;10.50;99.90;;;;;;5034486;28;20128;-80
2021/10/20 00:24:26;;;;;;;6.43;3.20;;;10.50;99.90;;;;;;5035013;28;20046;-78
2021/10/20 00:26:54;;;;;;;7.05;3.50;;;10.40;99.90;;;;;;5046632;28;20119;-78
2021/10/20 00:29:21;;;;;;;6.00;3.50;;;10.40;99.90;;;;;;5063077;28;20128;-77
2021/10/20 00:31:48;;;;;;;5.18;3.28;;;10.40;99.90;;;;;;5055014;28;20127;-79
2021/10/20 00:34:15;;;;;;;5.82;3.33;;;10.40;99.90;;;;;;5054234;28;20463;-79
2021/10/20 00:36:43;;;;;;;7.68;3.60;;;10.40;99.90;;;;;;5054297;28;20464;-79
2021/10/20 00:39:11;;;;;;;5.78;3.30;;;10.40;99.90;;;;;;5054656;28;20080;-79
2021/10/20 00:41:38;;;;;;;5.95;3.50;;;10.40;99.90;;;;;;5054574;28;20570;-80
2021/10/20 00:44:07;;;;;;;5.90;3.30;;;10.50;99.90;;;;;;5054009;28;20144;-80
2021/10/20 00:46:34;;;;;;;5.13;3.28;;;10.50;99.90;;;;;;5054400;28;20562;-77
2021/10/20 00:49:01;;;;;;;8.20;3.78;;;10.50;99.90;;;;;;5054011;28;20055;-80
2021/10/20 00:51:28;;;;;;;6.10;3.70;;;10.50;99.90;;;;;;5054354;28;20144;-80
2021/10/20 00:53:58;;;;;;;4.97;3.10;;;10.50;99.90;;;;;;5053244;28;20131;-78
2021/10/20 00:56:26;;;;;;;6.22;3.50;;;10.50;99.90;;;;;;5054264;28;20502;-80
2021/10/20 00:58:53;;;;;;;6.45;3.10;;;10.50;99.90;;;;;;5054176;28;20144;-78
2021/10/20 01:01:22;;;;;;;6.55;3.65;;;10.50;99.90;;;;;;5053800;28;20530;-78
2021/10/20 01:03:49;;;;;;;5.45;3.28;;;10.60;99.90;;;;;;5053685;28;20052;-79
2021/10/20 01:06:17;;;;;;;5.35;3.45;;;10.60;99.90;;;;;;5053793;28;20550;-79
2021/10/20 01:08:44;;;;;;;6.50;3.35;;;10.60;99.90;;;;;;5054198;28;20136;-80
2021/10/20 01:11:12;;;;;;;5.68;3.30;;;10.50;99.90;;;;;;5053973;28;20137;-79
2021/10/20 01:13:39;;;;;;;5.43;3.20;;;10.60;99.90;;;;;;5053810;28;20131;-79
2021/10/20 01:16:07;;;;;;;5.07;3.10;;;10.60;99.90;;;;;;5053643;28;20123;-79
2021/10/20 01:18:36;;;;;;;5.97;3.45;;;10.50;99.90;;;;;;5053910;28;20123;-78
2021/10/20 01:21:04;;;;;;;5.80;3.50;;;10.50;99.90;;;;;;5054138;28;20136;-79
2021/10/20 01:23:32;;;;;;;5.15;2.97;;;10.60;99.90;;;;;;5054184;28;20147;-78
2021/10/20 01:25:59;;;;;;;5.72;3.40;;;10.50;99.90;;;;;;5054151;28;20124;-79
2021/10/20 01:28:26;;;;;;;6.40;3.13;;;10.50;99.90;;;;;;5053798;28;20132;-78
2021/10/20 01:30:54;;;;;;;6.38;3.65;;;10.50;99.90;;;;;;5053190;28;20468;-78
2021/10/20 01:33:21;;;;;;;4.70;2.85;;;10.50;99.90;;;;;;5054445;28;20140;-78
2021/10/20 01:35:48;;;;;;;7.43;3.25;;;10.40;99.90;;;;;;5054011;28;20144;-77
2021/10/20 01:38:15;;;;;;;6.22;3.22;;;10.30;99.90;;;;;;5054310;28;20132;-78
2021/10/20 01:40:43;;;;;;;5.72;3.30;;;10.30;99.90;;;;;;5054320;28;20083;-79
2021/10/20 01:43:10;;;;;;;5.68;3.08;;;10.30;99.90;;;;;;5055645;28;20131;-78
2021/10/20 01:45:37;;;;;;;5.10;3.00;;;10.20;99.90;;;;;;5055488;28;20140;-77
2021/10/20 01:48:06;;;;;;;6.70;2.97;;;10.10;99.90;;;;;;5054906;28;20084;-79
2021/10/20 01:50:33;;;;;;;5.68;3.38;;;10.10;99.90;;;;;;5053903;28;20128;-78
2021/10/20 01:53:00;;;;;;;5.20;3.33;;;10.10;99.90;;;;;;5054537;28;20128;-79
2021/10/20 01:55:27;;;;;;;5.80;3.15;;;10.00;99.90;;;;;;5053794;28;20232;-78
2021/10/20 01:57:56;;;;;;;5.60;3.28;;;10.10;99.90;;;;;;5053836;28;20144;-80
2021/10/20 02:00:23;;;;;;;5.82;3.00;;;10.10;99.90;;;;;;5054236;28;20131;-79
2021/10/20 02:02:50;;;;;;;5.75;2.72;;;10.10;99.90;;;;;;5053555;28;20044;-80
2021/10/20 02:05:17;;;;;;;4.43;2.78;;;10.10;99.90;;;;;;5053148;28;20040;-80
2021/10/20 02:07:44;;;;;;;4.50;2.65;;;10.10;99.90;;;;;;5052608;28;20136;-78
2021/10/20 02:10:14;;;;;;;6.40;3.58;;;10.10;99.90;;;;;;5033256;28;20136;-78
2021/10/20 02:12:42;;;;;;;6.63;3.40;;;10.20;99.90;;;;;;5032515;28;20092;-79
2021/10/20 02:15:11;;;;;;;5.93;3.03;;;10.20;99.90;;;;;;5032516;28;20129;-79
2021/10/20 02:17:38;;;;;;;6.20;2.90;;;10.10;99.90;;;;;;5032596;28;20120;-80
2021/10/20 02:20:10;;;;;;;5.65;3.33;;;10.10;99.90;;;;;;5032606;28;20144;-79
2021/10/20 02:22:38;;;;;;;5.90;3.05;;;10.10;99.90;;;;;;5032268;28;20081;-78
2021/10/20 02:25:07;;;;;;;5.35;3.03;;;10.20;99.90;;;;;;5032493;28;20107;-76
2021/10/20 02:27:34;;;;;;;5.38;3.20;;;10.20;99.90;;;;;;5032188;28;20140;-81
2021/10/20 02:30:01;;;;;;;5.03;3.00;;;10.20;99.90;;;;;;5032674;28;20447;-79
2021/10/20 02:32:30;;;;;;;4.97;2.95;;;10.20;99.90;;;;;;5032318;28;20140;-78
2021/10/20 02:34:57;;;;;;;5.07;3.10;;;10.20;99.90;;;;;;5032571;28;20140;-79
2021/10/20 02:37:24;;;;;;;6.00;2.80;;;10.20;99.90;;;;;;5032795;28;20136;-79
2021/10/20 02:39:51;;;;;;;5.43;3.10;;;10.20;99.90;;;;;;5032326;28;20088;-78
2021/10/20 02:42:18;;;;;;;5.70;3.00;;;10.20;99.90;;;;;;5031974;28;20161;-81
2021/10/20 02:44:46;;;;;;;4.63;2.80;;;10.20;99.90;;;;;;5032573;28;20160;-80
2021/10/20 02:47:13;;;;;;;4.78;2.55;;;10.20;99.90;;;;;;5032264;28;20045;-78
2021/10/20 02:49:41;;;;;;;4.78;2.78;;;10.20;99.90;;;;;;5032044;28;20140;-78
2021/10/20 02:52:08;;;;;;;5.35;2.72;;;10.20;99.90;;;;;;5031892;28;20141;-80
2021/10/20 02:54:36;;;;;;;6.15;2.90;;;10.10;99.90;;;;;;5031926;28;20128;-79
2021/10/20 02:57:03;;;;;;;5.55;2.92;;;10.20;99.90;;;;;;5032283;28;20045;-79
2021/10/20 02:59:31;;;;;;;4.80;2.85;;;10.20;99.90;;;;;;5032372;28;20160;-80
2021/10/20 03:01:58;;;;;;;5.68;3.20;;;10.20;99.90;;;;;;5041218;28;20087;-79
2021/10/20 03:04:25;;;;;;;5.28;2.90;;;10.20;99.90;;;;;;5053276;28;20136;-79
2021/10/20 03:06:53;;;;;;;5.32;3.30;;;10.20;99.90;;;;;;5052892;28;20144;-79
2021/10/20 03:09:21;;;;;;;5.70;3.10;;;10.20;99.90;;;;;;5051600;28;20141;-79
2021/10/20 03:11:48;;;;;;;6.13;3.28;;;10.20;99.90;;;;;;5052535;28;20092;-77
2021/10/20 03:14:15;;;;;;;5.60;3.58;;;10.10;99.90;;;;;;5052265;28;20539;-79
2021/10/20 03:16:43;;;;;;;5.95;3.53;;;10.10;99.90;;;;;;5052180;28;20136;-79
2021/10/20 03:19:10;;;;;;;6.22;3.25;;;10.10;99.90;;;;;;5052380;28;20142;-80
2021/10/20 03:21:37;;;;;;;5.55;3.17;;;10.10;99.90;;;;;;5052111;28;20053;-79
2021/10/20 03:24:07;;;;;;;5.53;3.15;;;10.10;99.90;;;;;;5052263;28;20139;-78
2021/10/20 03:26:34;;;;;;;5.32;3.10;;;10.10;99.90;;;;;;5052210;28;20056;-76
2021/10/20 03:29:01;;;;;;;4.78;2.72;;;10.10;99.90;;;;;;5056033;28;20155;-78
2021/10/20 03:31:28;;;;;;;4.55;2.90;;;10.10;99.90;;;;;;5069448;28;20048;-79
2021/10/20 03:33:56;;;;;;;6.18;3.40;;;10.10;99.90;;;;;;5071966;28;20139;-78
2021/10/20 03:36:23;;;;;;;5.57;2.92;;;10.10;99.90;;;;;;5071626;28;20450;-78
2021/10/20 03:38:50;;;;;;;5.53;3.17;;;10.10;99.90;;;;;;5072022;28;20123;-76
2021/10/20 03:41:18;;;;;;;6.25;2.85;;;10.10;99.90;;;;;;5071667;28;20131;-79
2021/10/20 03:43:45;;;;;;;7.22;3.17;;;10.10;99.90;;;;;;5071902;28;20164;-78
2021/10/20 03:46:13;;;;;;;5.63;3.13;;;10.10;99.90;;;;;;5071656;28;20168;-78
2021/10/20 03:48:40;;;;;;;5.53;3.20;;;10.10;99.90;;;;;;5071688;28;20131;-78
2021/10/20 03:51:07;;;;;;;7.38;3.30;;;10.10;99.90;;;;;;5071594;28;20139;-76
2021/10/20 03:53:34;;;;;;;5.38;3.10;;;10.00;99.90;;;;;;5071669;28;20084;-77
2021/10/20 03:56:02;;;;;;;5.50;3.05;;;10.00;99.90;;;;;;5071630;28;20132;-77
2021/10/20 03:58:30;;;;;;;5.47;3.20;;;10.00;99.90;;;;;;5070611;28;20140;-79
2021/10/20 04:00:58;;;;;;;5.55;3.00;;;10.00;99.90;;;;;;5071008;28;20131;-78
2021/10/20 04:03:25;;;;;;;6.93;3.35;;;10.00;99.90;;;;;;5054512;28;20057;-78
2021/10/20 04:05:52;;;;;;;4.70;2.65;;;10.10;99.90;;;;;;5054832;28;20080;-79
2021/10/20 04:08:19;;;;;;;5.03;2.88;;;10.10;99.90;;;;;;5053468;28;20132;-79
2021/10/20 04:10:46;;;;;;;5.30;2.85;;;10.20;99.90;;;;;;5054638;28;20144;-78
2021/10/20 04:13:13;;;;;;;5.60;3.15;;;10.20;99.90;;;;;;5054164;28;20495;-79
2021/10/20 04:15:41;;;;;;;5.53;2.92;;;10.20;99.90;;;;;;5054545;28;20140;-81
2021/10/20 04:18:09;;;;;;;4.70;2.60;;;10.30;99.90;;;;;;5054532;28;20127;-78
2021/10/20 04:20:36;;;;;;;4.60;2.80;;;10.30;99.90;;;;;;5054669;28;20124;-80
2021/10/20 04:23:03;;;;;;;4.57;2.67;;;10.30;99.90;;;;;;5054455;28;20084;-79
2021/10/20 04:25:30;;;;;;;5.20;2.83;;;10.40;99.90;;;;;;5054334;28;20145;-80
2021/10/20 04:27:57;;;;;;;5.05;2.50;;;10.40;99.90;;;;;;5054440;28;20132;-80
2021/10/20 04:30:24;;;;;;;5.03;2.80;;;10.40;99.90;;;;;;5053991;28;20124;-80
2021/10/20 04:32:53;;;;;;;4.97;2.72;;;10.40;99.90;;;;;;5054150;28;20072;-79
2021/10/20 04:35:23;;;;;;;5.47;2.70;;;10.40;99.90;;;;;;5053888;28;20136;-80
2021/10/20 04:37:50;;;;;;;5.55;3.05;;;10.40;99.90;;;;;;5054118;28;20102;-80
2021/10/20 04:40:17;;;;;;;6.22;2.83;;;10.30;99.90;;;;;;5053849;28;20045;-79
2021/10/20 04:42:45;;;;;;;5.35;2.58;;;10.40;99.90;;;;;;5053950;28;20464;-80
2021/10/20 04:45:12;;;;;;;5.00;2.70;;;10.30;99.90;;;;;;5053653;28;20059;-80
2021/10/20 04:47:39;;;;;;;5.65;3.10;;;10.30;99.90;;;;;;5055854;28;20080;-80
2021/10/20 04:50:10;;;;;;;5.72;2.90;;;10.20;99.90;;;;;;5059356;28;20041;-78
2021/10/20 04:52:37;;;;;;;5.20;3.30;;;10.20;99.90;;;;;;5058886;28;20532;-79
2021/10/20 04:55:05;;;;;;;5.53;2.97;;;10.10;99.90;;;;;;5055069;28;20128;-78
2021/10/20 04:57:32;;;;;;;7.03;3.08;;;10.00;99.90;;;;;;5054067;28;20129;-79
2021/10/20 04:59:59;;;;;;;6.43;3.42;;;10.00;99.90;;;;;;5060773;28;20049;-79
2021/10/20 05:02:27;;;;;;;7.28;2.65;;;9.90;99.90;;;;;;5060653;28;20136;-80
2021/10/20 05:04:54;;;;;;;4.70;2.83;;;9.80;99.90;;;;;;5058134;28;20140;-79
2021/10/20 05:07:22;;;;;;;5.57;3.08;;;9.80;99.90;;;;;;5057225;28;20092;-80
2021/10/20 05:09:49;;;;;;;5.70;3.30;;;9.80;99.90;;;;;;5053745;28;20128;-80
2021/10/20 05:12:17;;;;;;;6.13;3.20;;;9.70;99.90;;;;;;5053123;28;20049;-80
2021/10/20 05:14:44;;;;;;;5.95;3.05;;;9.70;99.90;;;;;;5053066;28;20471;-79
2021/10/20 05:17:11;;;;;;;5.15;2.95;;;9.70;99.90;;;;;;5051400;28;20140;-79
2021/10/20 05:19:38;;;;;;;6.35;3.17;;;9.60;99.90;;;;;;5053288;28;20136;-79
2021/10/20 05:22:07;;;;;;;6.32;2.92;;;9.50;99.90;;;;;;5052629;28;20132;-78
2021/10/20 05:24:36;;;;;;;5.82;3.03;;;9.50;99.90;;;;;;5051301;28;20052;-80
2021/10/20 05:27:03;;;;;;;5.38;3.20;;;9.50;99.90;;;;;;5032860;28;20136;-80
2021/10/20 05:29:33;;;;;;;6.38;3.45;;;9.40;99.90;;;;;;5033236;28;20089;-80
2021/10/20 05:32:00;;;;;;;6.78;3.30;;;9.40;99.90;;;;;;5032869;28;20056;-80
2021/10/20 05:34:28;;;;;;;4.60;3.00;;;9.40;99.90;;;;;;5042576;28;20610;-79
2021/10/20 05:36:55;;;;;;;5.70;3.08;;;9.30;99.90;;;;;;5052568;28;20155;-79
2021/10/20 05:39:23;;;;;;;6.20;3.50;;;9.30;99.90;;;;;;5052751;28;20550;-77
2021/10/20 05:41:52;;;;;;;6.63;3.28;;;9.20;99.90;;;;;;5052834;28;20144;-78
2021/10/20 05:44:19;;;;;;;5.85;2.80;;;9.30;99.90;;;;;;5052777;28;20136;-74
2021/10/20 05:46:49;;;;;;;5.43;2.92;;;9.30;99.90;;;;;;5052911;28;20136;-78
2021/10/20 05:49:16;;;;;;;4.88;2.88;;;9.30;99.90;;;;;;5052691;28;20134;-78
2021/10/20 05:51:43;;;;;;;5.00;2.67;;;9.40;99.90;;;;;;5052607;28;20140;-79
2021/10/20 05:54:11;;;;;;;4.93;2.85;;;9.50;99.90;;;;;;5052629;28;20581;-78
2021/10/20 05:56:38;;;;;;;6.47;2.65;;;9.60;99.90;;;;;;5051252;28;20546;-79
2021/10/20 05:59:06;;;;;;;4.72;2.70;;;9.70;99.90;;;;;;5040361;28;20126;-76
2021/10/20 06:01:33;;;;;;;4.78;2.65;;;9.80;99.90;;;;;;5052088;28;20836;-80
2021/10/20 06:04:01;;;;;;;5.45;3.03;;;9.90;99.90;;;;;;5051836;28;20159;-79
2021/10/20 06:06:28;;;;;;;5.28;2.60;;;10.00;99.90;;;;;;5050221;28;20135;-78
2021/10/20 06:08:56;;;;;;;5.93;2.90;;;10.00;99.90;;;;;;5047460;28;20083;-79
2021/10/20 06:11:24;;;;;;;4.70;3.05;;;10.00;99.90;;;;;;5038604;28;20506;-76
2021/10/20 06:13:51;;;;;;;5.35;2.92;;;9.90;99.90;;;;;;5048082;28;20156;-78
2021/10/20 06:16:20;;;;;;;4.85;2.60;;;9.80;99.90;;;;;;5032382;28;20112;-78
2021/10/20 06:18:47;;;;;;;4.80;2.70;;;9.80;99.90;;;;;;5031873;28;20136;-79
2021/10/20 06:21:15;;;;;;;5.45;3.05;;;9.70;99.90;;;;;;5032311;28;20140;-79
2021/10/20 06:23:42;;;;;;;6.03;2.92;;;9.70;99.90;;;;;;5037803;28;20091;-77
2021/10/20 06:26:09;;;;;;;5.00;3.00;;;9.60;99.90;;;;;;5031993;28;20140;-81
2021/10/20 06:28:36;;;;;;;5.90;2.80;;;9.60;99.90;;;;;;5032034;28;20556;-80
2021/10/20 06:31:04;;;;;;;4.80;2.60;;;9.60;99.90;;;;;;5032103;28;20160;-79
2021/10/20 06:33:32;;;;;;;4.93;2.58;;;9.60;99.90;;;;;;5032113;28;20140;-81
2021/10/20 06:36:01;;;;;;;6.07;2.92;;;9.60;99.90;;;;;;5041273;28;20120;-80
2021/10/20 06:38:28;;;;;;;4.82;2.92;;;9.70;99.90;;;;;;5052188;28;20049;-79
2021/10/20 06:40:55;;;;;;;5.70;3.13;;;9.80;99.90;;;;;;5060431;28;20140;-80
2021/10/20 06:43:22;;;;;;;4.93;2.65;;;10.00;99.90;;;;;;5032178;28;20565;-78
2021/10/20 06:45:50;;;;;;;6.15;2.70;;;10.10;99.90;;;;;;5044498;28;20104;-79
2021/10/20 06:48:17;;;;;;;5.25;2.78;;;10.20;99.90;;;;;;5047067;28;20055;-78
2021/10/20 06:50:46;;;;;;;4.70;2.78;;;10.30;99.90;;;;;;5043373;28;20113;-78
2021/10/20 06:53:13;;;;;;;6.18;2.85;;;10.40;99.90;;;;;;5034082;28;20510;-77
2021/10/20 06:55:40;;;;;;;5.50;3.10;;;10.50;99.90;;;;;;5036414;28;20133;-82
2021/10/20 06:58:07;;;;;;;4.85;3.05;;;10.60;99.90;;;;;;5034418;28;20084;-79
2021/10/20 07:00:34;;;;;;;6.95;3.38;;;10.60;99.90;;;;;;5041510;28;20583;-78
2021/10/20 07:03:01;;;;;;;5.50;2.80;;;10.70;99.90;;;;;;5051500;28;20135;-77
2021/10/20 07:05:29;;;;;;;5.70;2.80;;;10.80;99.90;;;;;;5051663;28;20052;-76
2021/10/20 07:07:57;;;;;;;5.57;2.90;;;10.90;99.90;;;;;;5051461;28;20128;-78
2021/10/20 07:10:25;;;;;;;5.32;2.67;;;11.00;99.90;;;;;;5051678;28;20557;-75
2021/10/20 07:12:54;;;;;;;4.78;2.80;;;11.00;99.90;;;;;;5051236;28;20131;-80
2021/10/20 07:15:21;;;;;;;5.40;3.13;;;11.10;99.90;;;;;;5051693;28;20075;-80
2021/10/20 07:17:48;;;;;;;4.38;2.58;;;11.20;99.90;;;;;;5051367;28;20131;-79
2021/10/20 07:20:16;;;;;;;5.10;2.70;;;11.30;99.90;;;;;;5051521;28;20837;-77
2021/10/20 07:22:43;;;;;;;5.53;2.50;;;11.40;99.90;;;;;;5050182;28;20085;-78
2021/10/20 07:25:15;;;;;;;5.95;2.95;;;11.50;99.90;;;;;;5047159;28;20053;-78
2021/10/20 07:27:43;;;;;;;5.57;2.70;;;11.60;99.90;;;;;;5050979;28;20055;-81
2021/10/20 07:30:12;;;;;;;6.10;3.00;;;11.60;99.90;;;;;;5051437;28;20084;-81
2021/10/20 07:32:40;;;;;;;5.53;3.25;;;11.70;99.90;;;;;;5051441;28;20128;-80
2021/10/20 07:35:08;;;;;;;5.60;3.03;;;11.80;99.90;;;;;;5051228;28;20084;-80
2021/10/20 07:37:35;;;;;;;7.13;3.30;;;11.80;99.90;;;;;;5051443;28;20128;-82
2021/10/20 07:40:05;;;;;;;5.20;2.90;;;11.80;99.90;;;;;;5049784;28;20128;-80
2021/10/20 07:42:36;;;;;;;7.70;4.05;;;11.90;99.90;;;;;;5036008;28;20073;-79
2021/10/20 07:45:04;;;;;;;8.18;3.95;;;12.00;99.90;;;;;;5051350;28;20071;-80
2021/10/20 07:47:31;;;;;;;6.38;3.60;;;12.00;99.90;;;;;;5051188;28;20617;-79
2021/10/20 07:49:59;;;;;;;5.35;3.13;;;12.10;99.90;;;;;;5055136;28;20049;-80
2021/10/20 07:52:28;;;;;;;6.70;3.10;;;12.10;99.90;;;;;;5054896;28;20092;-79
2021/10/20 07:54:55;;;;;;;6.70;3.40;;;12.20;99.90;;;;;;5054868;28;20053;-79
2021/10/20 07:57:22;;;;;;;5.43;2.90;;;12.20;99.90;;;;;;5054746;28;20048;-79
2021/10/20 07:59:51;;;;;;;6.18;3.10;;;12.30;99.90;;;;;;5054894;28;20135;-79
2021/10/20 08:02:19;;;;;;;6.60;3.72;;;12.30;99.90;;;;;;5054678;28;20445;-78
2021/10/20 08:04:46;;;;;;;6.88;3.78;;;12.40;99.90;;;;;;5054609;28;20502;-78
2021/10/20 08:07:13;;;;;;;10.27;4.00;;;12.40;99.90;;;;;;5054441;28;20152;-78
2021/10/20 08:09:42;;;;;;;9.00;4.30;;;12.50;99.90;;;;;;5054846;28;20083;-79
2021/10/20 08:12:09;;;;;;;7.28;4.07;;;12.60;99.90;;;;;;5054726;28;20045;-80
2021/10/20 08:14:41;;;;;;;6.47;4.00;;;12.60;99.90;;;;;;5054404;28;20084;-79
2021/10/20 08:17:10;;;;;;;6.43;3.40;;;12.70;99.90;;;;;;5054655;28;20045;-79
2021/10/20 08:19:37;;;;;;;6.60;3.60;;;12.70;99.90;;;;;;5054428;28;20127;-79
2021/10/20 08:22:04;;;;;;;7.13;3.75;;;12.80;99.90;;;;;;5056069;28;20110;-78
2021/10/20 08:24:31;;;;;;;5.75;3.50;;;12.80;99.90;;;;;;5054561;28;20140;-77
2021/10/20 08:26:58;;;;;;;5.40;3.00;;;12.90;99.90;;;;;;5054413;28;20084;-79
2021/10/20 08:29:26;;;;;;;5.00;2.70;;;13.00;99.90;;;;;;5053060;28;20080;-77
2021/10/20 08:31:53;;;;;;;5.47;2.95;;;13.00;99.90;;;;;;5054270;28;20083;-79
2021/10/20 08:34:22;;;;;;;5.43;2.92;;;13.10;99.90;;;;;;5053967;28;20137;-79
2021/10/20 08:36:49;;;;;;;5.57;2.85;;;13.20;99.90;;;;;;5054278;28;20055;-79
2021/10/20 08:39:17;;;;;;;5.13;2.90;;;13.30;99.90;;;;;;5054359;28;20263;-80
2021/10/20 08:41:45;;;;;;;5.10;2.90;;;13.40;99.90;;;;;;5054255;28;20405;-79
2021/10/20 08:44:13;;;;;;;4.85;2.45;;;13.50;99.90;;;;;;5054194;28;20091;-77
2021/10/20 08:46:41;;;;;;;6.28;3.30;;;13.50;99.90;;;;;;5053811;28;20145;-79
2021/10/20 08:49:11;;;;;;;4.60;2.60;;;13.60;99.60;;;;;;5054179;28;20087;-78
2021/10/20 08:51:40;;;;;;;4.38;2.60;;;13.70;99.40;;;;;;5054149;28;20132;-80
2021/10/20 08:54:08;;;;;;;7.30;2.38;;;13.80;99.20;;;;;;5054025;28;20076;-79
2021/10/20 08:56:35;;;;;;;4.50;2.50;;;13.80;99.10;;;;;;5053809;28;20562;-78
2021/10/20 08:59:03;;;;;;;4.75;2.70;;;13.90;99.10;;;;;;5053136;28;20044;-79
2021/10/20 09:01:30;;;;;;;5.25;2.78;;;14.00;99.10;;;;;;5053373;28;20492;-81
2021/10/20 09:03:57;;;;;;;6.95;3.40;;;14.10;99.30;;;;;;5053616;28;20136;-81
2021/10/20 09:06:29;;;;;;;5.25;3.20;;;14.20;99.30;;;;;;5053658;28;20136;-78
2021/10/20 09:09:02;;;;;;;7.32;3.22;;;14.20;99.30;;;;;;5053605;28;20053;-80
2021/10/20 09:11:32;;;;;;;6.43;3.20;;;14.30;98.70;;;;;;5053544;28;20045;-79
2021/10/20 09:14:01;;;;;;;6.03;3.00;;;14.30;98.60;;;;;;5053574;28;20124;-79
2021/10/20 09:16:28;;;;;;;6.45;2.95;;;14.40;98.70;;;;;;5053555;28;20057;-79
2021/10/20 09:18:58;;;;;;;5.10;2.90;;;14.40;98.70;;;;;;5053561;28;20147;-80
2021/10/20 09:21:26;;;;;;;6.10;3.38;;;14.50;98.70;;;;;;5053251;28;20512;-78
2021/10/20 09:23:54;;;;;;;5.25;2.80;;;14.60;98.60;;;;;;5053258;28;20491;-79
2021/10/20 09:26:28;;;;;;;6.10;3.08;;;14.70;98.10;;;;;;5053244;28;20136;-79
2021/10/20 09:28:56;;;;;;;4.82;2.65;;;14.80;97.80;;;;;;5053502;28;20052;-80
2021/10/20 09:31:26;;;;;;;4.95;2.50;;;14.80;97.70;;;;;;5052988;28;20492;-79
2021/10/20 09:33:54;;;;;;;5.35;2.80;;;14.90;97.70;;;;;;5053272;28;20128;-79
2021/10/20 09:36:22;;;;;;;6.38;2.67;;;15.00;97.60;;;;;;5052039;28;20128;-79
2021/10/20 09:38:49;;;;;;;5.00;2.70;;;15.00;97.40;;;;;;5051606;28;20071;-77
2021/10/20 09:41:18;;;;;;;5.97;3.50;;;15.00;97.30;;;;;;5060519;28;20549;-79
2021/10/20 09:43:53;;;;;;;6.30;2.72;;;15.10;96.90;;;;;;5042484;28;20057;-78
2021/10/20 09:46:33;;;;;;;6.28;3.15;;;15.10;96.70;;;;;;5032969;28;20049;-79
2021/10/20 09:49:03;;;;;;;6.63;2.95;;;15.20;96.80;;;;;;5048171;28;20063;-81
2021/10/20 09:51:38;;;;;;;5.93;2.80;;;15.20;96.50;;;;;;5032930;28;20055;-79
2021/10/20 09:54:24;;;;;;;5.80;2.78;;;15.30;96.60;;;;;;5032692;28;20431;-78
2021/10/20 09:56:56;;;;;;;5.20;2.60;;;15.30;96.20;;;;;;5033044;28;20128;-78
2021/10/20 09:59:26;;;;;;;6.05;3.03;;;15.40;95.80;;;;;;5032511;28;20149;-78
2021/10/20 10:01:54;;;;;;;5.68;2.60;;;15.50;95.70;;;;;;5032659;28;20129;-78
2021/10/20 10:04:22;;;;;;;4.75;2.60;;;15.60;95.60;;;;;;5049881;28;20112;-78
2021/10/20 10:06:50;;;;;;;5.35;2.78;;;15.60;95.30;;;;;;5052098;28;20115;-79
2021/10/20 10:09:18;;;;;;;4.88;2.28;;;15.70;95.20;;;;;;5056158;28;20569;-80
2021/10/20 10:11:53;;;;;;;4.43;2.80;;;15.80;95.30;;;;;;5052280;28;20128;-79
2021/10/20 10:14:21;;;;;;;;;;;16.00;95.20;;;;;;5052966;28;20562;-79
2021/10/20 10:16:56;;;;;;;4.88;2.65;;;16.10;95.00;;;;;;5052537;28;19920;-80
2021/10/20 10:19:24;;;;;;;3.90;2.30;;;16.20;94.80;;;;;;5052461;28;20490;-81
2021/10/20 10:21:52;;;;;;;5.35;2.40;;;16.40;94.70;;;;;;5052411;28;20564;-79
2021/10/20 10:24:20;;;;;;;6.18;2.50;;;16.50;94.50;;;;;;5052714;28;20461;-79
2021/10/20 10:27:07;;;;;;;4.32;2.38;;;16.60;94.40;;;;;;5052044;28;20135;-80
2021/10/20 10:29:36;;;;;;;4.40;2.10;;;16.80;94.20;;;;;;5052198;28;20103;-79
2021/10/20 10:32:10;;;;;;;4.75;2.33;;;16.90;94.20;;;;;;5052090;28;20088;-79
2021/10/20 10:34:39;;;;;;;4.75;2.42;;;17.00;94.20;;;;;;5052351;28;20056;-80
2021/10/20 10:37:06;;;;;;;4.00;2.20;;;17.20;93.90;;;;;;5051771;28;20565;-79
2021/10/20 10:39:34;;;;;;;4.32;2.30;;;17.30;94.00;;;;;;5052325;28;20144;-80
2021/10/20 10:42:03;;;;;;;4.30;2.33;;;17.40;93.60;;;;;;5051958;28;20550;-79
2021/10/20 10:44:32;;;;;;;3.75;2.10;;;17.60;93.30;;;;;;5052134;28;20133;-79
2021/10/20 10:47:21;;;;;;;3.95;2.25;;;17.70;92.60;;;;;;5051915;28;20080;-78
2021/10/20 10:49:55;;;;;;;5.32;2.03;;;17.80;91.90;;;;;;5051866;28;20056;-79
2021/10/20 10:52:33;;;;;;;3.97;2.13;;;17.90;91.50;;;;;;5052133;28;20380;-80
2021/10/20 10:55:13;;;;;;;4.15;1.80;;;18.00;91.30;;;;;;5051917;28;20132;-80
2021/10/20 10:57:50;;;;;;;3.08;1.80;;;18.10;91.20;;;;;;5051884;28;20048;-79
2021/10/20 11:00:44;;;;;;;4.40;2.17;;;18.20;91.10;;;;;;5050154;28;20072;-79
2021/10/20 11:03:22;;;;;;;;;;;18.30;90.50;;;;;;5052085;28;20059;-79
2021/10/20 11:06:00;;;;;;;4.05;2.22;;;18.30;89.90;;;;;;5051510;28;19971;-81
2021/10/20 11:08:29;;;;;;;3.65;1.92;;;18.40;89.50;;;;;;5051422;28;20048;-80
2021/10/20 11:10:57;;;;;;;5.15;2.25;;;18.50;89.90;;;;;;5051793;28;20132;-79
2021/10/20 11:13:25;;;;;;;3.90;1.80;;;18.70;90.00;;;;;;5051789;28;20049;-78
2021/10/20 11:15:52;;;;;;;3.63;2.15;;;18.80;89.50;;;;;;5051770;28;20152;-79
2021/10/20 11:18:24;;;;;;;5.57;2.10;;;18.90;88.50;;;;;;5051639;28;20143;-79
2021/10/20 11:20:55;;;;;;;4.25;1.80;;;19.00;88.70;;;;;;5051565;28;20696;-80
2021/10/20 11:23:22;;;;;;;4.00;2.08;;;19.00;88.10;;;;;;5053125;28;20800;-78
2021/10/20 11:25:51;;;;;;;3.63;2.00;;;19.10;87.60;;;;;;5055378;28;20076;-79
2021/10/20 11:28:18;;;;;;;4.45;2.05;;;19.20;87.30;;;;;;5055585;28;20123;-80
2021/10/20 11:30:46;;;;;;;3.30;1.83;;;19.30;87.60;;;;;;5055546;28;20091;-80
2021/10/20 11:33:15;;;;;;;4.80;2.40;;;19.30;87.20;;;;;;5055207;28;20053;-79
2021/10/20 11:35:45;;;;;;;4.88;1.90;;;19.30;86.90;;;;;;5055638;28;20128;-79
2021/10/20 11:38:15;;;;;;;4.07;2.08;;;19.30;85.80;;;;;;5055629;28;20056;-79
2021/10/20 11:40:45;;;;;;;4.07;2.13;;;19.40;86.00;;;;;;5055149;28;20136;-79
2021/10/20 11:43:18;;;;;;;4.43;1.90;;;19.50;86.00;;;;;;5046482;28;20122;-79
2021/10/20 11:45:47;;;;;;;3.58;1.80;;;19.60;85.40;;;;;;5035066;28;20085;-79
2021/10/20 11:48:18;;;;;;;6.72;2.20;;;19.70;85.70;;;;;;5035176;28;20132;-77
2021/10/20 11:50:50;;;;;;;4.22;1.80;;;19.70;85.40;;;;;;5035155;28;20563;-78
2021/10/20 11:53:17;;;;;;;6.80;2.25;;;19.90;85.20;;;;;;5035223;28;20053;-79
2021/10/20 11:55:46;;;;;;;3.72;1.73;;;19.90;84.60;;;;;;5035485;28;20463;-79
2021/10/20 11:58:25;;;;;;;4.50;1.90;;;20.00;84.20;;;;;;5040391;28;20084;-79
2021/10/20 12:00:53;;;;;;;3.78;1.77;;;20.10;83.90;;;;;;5035151;28;20559;-79
2021/10/20 12:03:21;;;;;;;3.92;1.80;;;20.10;83.60;;;;;;5043800;28;20056;-79
2021/10/20 12:05:49;;;;;;;3.97;1.73;;;20.30;82.30;;;;;;5054949;28;20095;-77
2021/10/20 12:08:17;;;;;;;5.47;1.83;;;20.40;80.70;;;;;;5054802;28;20124;-78
2021/10/20 12:10:44;;;;;;;3.85;2.25;;;20.50;80.80;;;;;;5054982;28;20052;-78
2021/10/20 12:13:11;;;;;;;3.20;1.77;;;20.70;80.10;;;;;;5054573;28;20131;-78
2021/10/20 12:15:42;;;;;;;3.50;1.70;;;20.70;79.70;;;;;;5054903;28;20453;-78
2021/10/20 12:18:11;;;;;;;3.90;1.70;;;21.00;78.70;;;;;;5054823;28;20135;-78
2021/10/20 12:20:40;;;;;;;4.57;1.85;;;21.10;78.40;;;;;;5054621;28;20465;-80
2021/10/20 12:23:10;;;;;;;3.42;1.80;;;21.30;85.60;;;;;;5054468;28;20049;-78
2021/10/20 12:25:37;;;;;;;3.65;1.55;;;21.40;85.00;;;;;;5054270;28;20061;-78
2021/10/20 12:28:04;;;;;;;3.15;1.60;;;21.60;85.00;;;;;;5054536;28;20143;-79
2021/10/20 12:30:33;;;;;;;3.83;1.85;;;21.70;84.10;;;;;;5054262;28;20088;-79
2021/10/20 12:33:09;;;;;;;3.45;1.50;;;21.70;84.90;;;;;;5054292;28;20479;-79
2021/10/20 12:35:37;;;;;;;3.50;1.73;;;21.90;85.40;;;;;;5054136;28;20049;-79
2021/10/20 12:38:05;;;;;;;3.92;1.55;;;21.80;85.00;;;;;;5054271;28;20415;-79
2021/10/20 12:40:36;;;;;;;3.83;1.80;;;21.90;85.60;;;;;;5053996;28;20053;-80
2021/10/20 12:43:08;;;;;;;3.08;1.55;;;21.80;85.90;;;;;;5054729;28;20064;-80
2021/10/20 12:45:37;;;;;;;4.07;1.73;;;22.00;86.40;;;;;;5055324;28;20048;-79
2021/10/20 12:48:07;;;;;;;3.03;1.45;;;21.90;87.40;;;;;;5065602;28;20155;-81
2021/10/20 12:50:37;;;;;;;3.17;1.42;;;22.00;88.50;;;;;;5054228;28;20084;-80
2021/10/20 12:53:07;;;;;;;2.90;1.45;;;22.20;90.50;;;;;;5053992;28;20136;-80
2021/10/20 12:55:36;;;;;;;3.80;1.60;;;22.30;90.50;;;;;;5053970;28;20144;-79